createdAt,value
2018-05-18T00:00:09.674Z,96.60
2018-05-18T00:02:12.118Z,96.60
2018-05-18T00:04:14.537Z,96.40
2018-05-18T00:06:17.848Z,96.50
2018-05-18T00:08:21.060Z,96.30
2018-05-18T00:10:23.560Z,96.30
2018-05-18T00:12:26.036Z,96.00
2018-05-18T00:14:28.525Z,96.00
2018-05-18T00:16:30.940Z,96.10
2018-05-18T00:18:34.032Z,95.90
2018-05-18T00:20:36.457Z,95.80
2018-05-18T00:22:39.657Z,95.80
2018-05-18T00:24:42.860Z,96.00
2018-05-18T00:26:45.351Z,95.90
2018-05-18T00:28:47.788Z,96.20
2018-05-18T00:30:50.228Z,96.40
2018-05-18T00:32:52.677Z,96.40
2018-05-18T00:34:55.229Z,96.50
2018-05-18T00:36:57.701Z,96.70
2018-05-18T00:39:00.709Z,96.40
2018-05-18T00:41:03.141Z,96.60
2018-05-18T00:43:05.621Z,96.60
2018-05-18T00:45:08.086Z,96.60
2018-05-18T00:47:10.518Z,96.70
2018-05-18T00:49:13.729Z,96.70
2018-05-18T00:51:16.218Z,96.70
2018-05-18T00:53:18.657Z,96.60
2018-05-18T00:55:33.589Z,96.90
2018-05-18T00:57:36.024Z,96.90
2018-05-18T00:59:38.501Z,96.60
2018-05-18T01:01:40.965Z,96.60
2018-05-18T01:03:43.416Z,96.50
2018-05-18T01:05:45.866Z,97.20
2018-05-18T01:07:49.093Z,97.40
2018-05-18T01:09:51.552Z,97.40
2018-05-18T01:11:53.969Z,97.30
2018-05-18T01:13:56.532Z,97.60
2018-05-18T01:15:59.019Z,97.20
2018-05-18T01:18:01.479Z,97.30
2018-05-18T01:20:04.020Z,97.30
2018-05-18T01:22:06.465Z,97.20
2018-05-18T01:24:08.912Z,97.10
2018-05-18T01:26:12.178Z,97.50
2018-05-18T01:28:14.628Z,97.50
2018-05-18T01:30:17.093Z,97.40
2018-05-18T01:32:19.576Z,97.30
2018-05-18T01:34:22.030Z,97.10
2018-05-18T01:36:24.527Z,96.80
2018-05-18T01:38:26.994Z,96.70
2018-05-18T01:40:29.432Z,96.70
2018-05-18T01:42:31.862Z,97.30
2018-05-18T01:44:35.088Z,97.80
2018-05-18T01:46:37.520Z,97.80
2018-05-18T01:48:40.748Z,97.50
2018-05-18T01:50:43.268Z,97.50
2018-05-18T01:52:45.724Z,97.50
2018-05-18T01:54:48.273Z,97.50
2018-05-18T01:56:50.749Z,97.20
2018-05-18T01:58:53.296Z,97.50
2018-05-18T02:00:55.792Z,97.00
2018-05-18T02:02:58.261Z,96.80
2018-05-18T02:05:00.827Z,96.60
2018-05-18T02:07:03.297Z,96.60
2018-05-18T02:09:05.762Z,96.80
2018-05-18T02:11:09.101Z,97.50
2018-05-18T02:13:12.333Z,97.60
2018-05-18T02:15:14.777Z,97.50
2018-05-18T02:17:17.993Z,97.60
2018-05-18T02:19:20.447Z,97.70
2018-05-18T02:21:22.937Z,97.80
2018-05-18T02:23:25.418Z,97.70
2018-05-18T02:25:27.879Z,97.60
2018-05-18T02:27:30.322Z,97.60
2018-05-18T02:29:32.808Z,97.40
2018-05-18T02:31:35.253Z,97.80
2018-05-18T02:33:37.684Z,97.90
2018-05-18T02:35:40.225Z,97.70
2018-05-18T02:37:42.697Z,97.70
2018-05-18T02:39:45.256Z,97.70
2018-05-18T02:41:47.699Z,97.60
2018-05-18T02:43:50.924Z,97.40
2018-05-18T02:45:53.365Z,97.30
2018-05-18T02:47:55.865Z,97.30
2018-05-18T02:49:58.301Z,97.20
2018-05-18T02:52:01.497Z,97.00
2018-05-18T02:54:03.920Z,97.00
2018-05-18T02:56:06.468Z,97.00
2018-05-18T02:58:08.940Z,97.10
2018-05-18T03:00:11.404Z,96.80
2018-05-18T03:02:13.921Z,96.50
2018-05-18T03:04:16.336Z,96.30
2018-05-18T03:06:18.804Z,96.20
2018-05-18T03:08:21.263Z,96.20
2018-05-18T03:10:23.752Z,96.10
2018-05-18T03:12:26.190Z,96.10
2018-05-18T03:14:29.403Z,96.20
2018-05-18T03:16:31.833Z,96.20
2018-05-18T03:18:34.357Z,96.40
2018-05-18T03:20:36.813Z,96.30
2018-05-18T03:22:39.320Z,96.20
2018-05-18T03:24:41.815Z,96.40
2018-05-18T03:26:44.533Z,96.20
2018-05-18T03:28:46.965Z,96.40
2018-05-18T03:30:50.205Z,95.80
2018-05-18T03:32:52.665Z,95.80
2018-05-18T03:34:55.113Z,95.40
2018-05-18T03:36:58.369Z,94.80
2018-05-18T03:39:00.825Z,94.60
2018-05-18T03:41:03.384Z,94.50
2018-05-18T03:43:05.848Z,94.20
2018-05-18T03:45:08.312Z,93.70
2018-05-18T03:47:10.789Z,93.90
2018-05-18T03:49:13.276Z,93.80
2018-05-18T03:51:15.740Z,93.60
2018-05-18T03:53:18.196Z,93.80
2018-05-18T03:55:20.655Z,94.00
2018-05-18T03:57:23.089Z,94.10
2018-05-18T03:59:26.328Z,93.50
2018-05-18T04:01:40.808Z,93.50
2018-05-18T04:03:55.147Z,93.50
2018-05-18T04:06:09.628Z,93.50
2018-05-18T04:08:24.941Z,93.70
2018-05-18T04:10:27.388Z,93.70
2018-05-18T04:12:29.881Z,93.70
2018-05-18T04:14:32.320Z,93.80
2018-05-18T04:16:35.530Z,93.40
2018-05-18T04:18:37.957Z,93.40
2018-05-18T04:20:41.197Z,93.70
2018-05-18T04:22:43.628Z,93.60
2018-05-18T04:24:46.865Z,93.80
2018-05-18T04:26:49.318Z,93.80
2018-05-18T04:28:51.736Z,93.40
2018-05-18T04:30:54.266Z,93.70
2018-05-18T04:32:56.725Z,93.50
2018-05-18T04:34:59.157Z,93.00
2018-05-18T04:37:02.353Z,92.50
2018-05-18T04:39:05.590Z,91.70
2018-05-18T04:41:08.092Z,91.60
2018-05-18T04:43:10.686Z,91.50
2018-05-18T04:45:13.036Z,91.50
2018-05-18T04:47:15.491Z,91.40
2018-05-18T04:49:17.946Z,91.50
2018-05-18T04:51:20.377Z,91.40
2018-05-18T04:53:23.503Z,91.10
2018-05-18T04:55:26.729Z,91.50
2018-05-18T04:57:29.944Z,91.30
2018-05-18T04:59:32.428Z,91.30
2018-05-18T05:01:34.905Z,90.80
2018-05-18T05:03:37.372Z,90.90
2018-05-18T05:05:39.812Z,90.50
2018-05-18T05:07:42.241Z,91.00
2018-05-18T05:09:44.696Z,91.10
2018-05-18T05:11:47.153Z,91.10
2018-05-18T05:13:49.584Z,90.60
2018-05-18T05:15:52.793Z,89.70
2018-05-18T05:17:55.306Z,89.70
2018-05-18T05:19:57.744Z,90.10
2018-05-18T05:22:00.182Z,89.90
2018-05-18T05:24:03.399Z,88.40
2018-05-18T05:26:05.858Z,88.30
2018-05-18T05:28:08.353Z,86.90
2018-05-18T05:30:10.812Z,87.30
2018-05-18T05:32:13.285Z,87.10
2018-05-18T05:34:15.708Z,86.20
2018-05-18T05:36:18.926Z,83.20
2018-05-18T05:38:22.124Z,84.20
2018-05-18T05:40:24.545Z,84.10
2018-05-18T05:42:26.973Z,83.70
2018-05-18T05:44:29.436Z,84.30
2018-05-18T05:46:31.904Z,82.40
2018-05-18T05:48:34.340Z,81.30
2018-05-18T05:50:37.573Z,81.70
2018-05-18T05:52:40.034Z,81.70
2018-05-18T05:54:42.449Z,79.70
2018-05-18T05:56:44.960Z,78.80
2018-05-18T05:58:48.168Z,78.30
2018-05-18T06:00:50.630Z,78.30
2018-05-18T06:02:53.065Z,79.00
2018-05-18T06:04:56.288Z,79.00
2018-05-18T06:06:58.761Z,78.90
2018-05-18T06:09:01.193Z,78.30
2018-05-18T06:11:04.401Z,76.40
2018-05-18T06:13:07.598Z,78.30
2018-05-18T06:15:10.036Z,78.20
2018-05-18T06:17:13.247Z,77.10
2018-05-18T06:19:15.733Z,77.10
2018-05-18T06:21:18.204Z,75.70
2018-05-18T06:23:20.672Z,75.10
2018-05-18T06:25:23.245Z,74.40
2018-05-18T06:27:25.677Z,72.40
2018-05-18T06:29:28.878Z,74.70
2018-05-18T06:31:31.309Z,74.40
2018-05-18T06:33:33.740Z,74.30
2018-05-18T06:35:36.217Z,74.80
2018-05-18T06:37:38.648Z,74.30
2018-05-18T06:39:41.870Z,71.50
2018-05-18T06:41:44.359Z,71.20
2018-05-18T06:43:46.780Z,72.90
2018-05-18T06:45:49.312Z,74.60
2018-05-18T06:47:51.746Z,69.30
2018-05-18T06:49:54.226Z,69.00
2018-05-18T06:51:56.672Z,68.80
2018-05-18T06:53:59.885Z,66.20
2018-05-18T06:56:02.361Z,66.30
2018-05-18T06:58:04.799Z,64.90
2018-05-18T07:00:07.225Z,66.00
2018-05-18T07:02:09.663Z,67.60
2018-05-18T07:04:12.084Z,69.00
2018-05-18T07:06:15.284Z,67.00
2018-05-18T07:08:18.493Z,66.40
2018-05-18T07:10:20.920Z,66.40
2018-05-18T07:12:24.164Z,63.60
2018-05-18T07:14:26.624Z,62.90
2018-05-18T07:16:29.170Z,61.50
2018-05-18T07:18:31.524Z,59.80
2018-05-18T07:20:34.728Z,61.50
2018-05-18T07:22:37.245Z,61.30
2018-05-18T07:24:39.700Z,60.70
2018-05-18T07:26:42.128Z,61.10
2018-05-18T07:28:45.335Z,61.90
2018-05-18T07:30:47.824Z,61.90
2018-05-18T07:32:50.253Z,59.80
2018-05-18T07:34:53.448Z,60.00
2018-05-18T07:36:56.641Z,60.80
2018-05-18T07:38:59.085Z,60.90
2018-05-18T07:41:01.514Z,59.10
2018-05-18T07:43:04.058Z,59.90
2018-05-18T07:45:06.421Z,59.60
2018-05-18T07:47:09.635Z,58.90
2018-05-18T07:49:12.072Z,58.90
2018-05-18T07:51:14.544Z,58.50
2018-05-18T07:53:16.984Z,58.00
2018-05-18T07:55:19.516Z,56.70
2018-05-18T07:57:21.954Z,57.20
2018-05-18T07:59:25.164Z,57.70
2018-05-18T08:01:27.580Z,57.00
2018-05-18T08:03:30.797Z,56.10
2018-05-18T08:05:33.983Z,56.80
2018-05-18T08:07:37.189Z,57.60
2018-05-18T08:09:39.680Z,57.60
2018-05-18T08:11:42.144Z,56.10
2018-05-18T08:13:44.621Z,55.10
2018-05-18T08:15:47.063Z,54.60
2018-05-18T08:17:50.277Z,54.00
2018-05-18T08:19:52.696Z,54.00
2018-05-18T08:21:55.888Z,53.00
2018-05-18T08:23:59.117Z,54.50
2018-05-18T08:26:01.548Z,54.40
2018-05-18T08:28:04.792Z,55.10
2018-05-18T08:30:07.222Z,55.10
2018-05-18T08:32:10.447Z,54.70
2018-05-18T08:34:12.905Z,54.70
2018-05-18T08:36:15.333Z,54.80
2018-05-18T08:38:18.560Z,53.80
2018-05-18T08:40:21.892Z,53.80
2018-05-18T08:42:24.433Z,52.40
2018-05-18T08:44:26.982Z,51.70
2018-05-18T08:46:29.372Z,51.20
2018-05-18T08:48:31.800Z,50.30
2018-05-18T08:50:34.997Z,51.80
2018-05-18T08:52:37.425Z,51.70
2018-05-18T08:54:39.870Z,50.30
2018-05-18T08:56:42.288Z,50.40
2018-05-18T08:58:45.497Z,49.00
2018-05-18T09:00:47.932Z,48.90
2018-05-18T09:02:50.468Z,50.50
2018-05-18T09:04:52.916Z,52.00
2018-05-18T09:06:55.396Z,51.20
2018-05-18T09:08:57.872Z,50.80
2018-05-18T09:11:00.337Z,50.70
2018-05-18T09:13:02.803Z,51.30
2018-05-18T09:15:05.293Z,52.50
2018-05-18T09:17:07.751Z,51.80
2018-05-18T09:19:10.190Z,51.90
2018-05-18T09:21:13.386Z,52.50
2018-05-18T09:23:15.839Z,52.60
2018-05-18T09:25:19.030Z,51.80
2018-05-18T09:27:22.220Z,51.40
2018-05-18T09:29:25.439Z,50.40
2018-05-18T09:31:27.865Z,50.40
2018-05-18T09:33:31.064Z,54.00
2018-05-18T09:35:34.322Z,52.70
2018-05-18T09:37:36.764Z,52.60
2018-05-18T09:39:39.204Z,52.00
2018-05-18T09:41:41.641Z,51.50
2018-05-18T09:43:44.145Z,50.80
2018-05-18T09:45:47.330Z,50.10
2018-05-18T09:47:49.768Z,50.10
2018-05-18T09:49:52.204Z,49.00
2018-05-18T09:51:54.686Z,49.80
2018-05-18T09:53:57.173Z,51.60
2018-05-18T09:55:59.558Z,51.80
2018-05-18T09:58:02.753Z,52.20
2018-05-18T10:00:05.977Z,51.60
2018-05-18T10:02:08.453Z,51.60
2018-05-18T10:04:10.889Z,52.60
2018-05-18T10:06:13.417Z,52.40
2018-05-18T10:08:15.972Z,51.80
2018-05-18T10:10:18.425Z,51.30
2018-05-18T10:12:20.957Z,53.20
2018-05-18T10:14:23.369Z,54.50
2018-05-18T10:16:25.838Z,54.00
2018-05-18T10:18:28.362Z,53.60
2018-05-18T10:20:31.476Z,54.30
2018-05-18T10:22:33.896Z,54.80
2018-05-18T10:24:37.509Z,52.80
2018-05-18T10:26:40.750Z,52.70
2018-05-18T10:28:43.921Z,52.70
2018-05-18T10:30:46.408Z,53.70
2018-05-18T10:32:48.902Z,54.40
2018-05-18T10:34:51.348Z,54.80
2018-05-18T10:36:53.780Z,57.00
2018-05-18T10:38:57.050Z,54.40
2018-05-18T10:40:59.474Z,54.40
2018-05-18T10:43:01.961Z,54.40
2018-05-18T10:45:04.408Z,55.30
2018-05-18T10:47:06.888Z,56.20
2018-05-18T10:49:09.329Z,55.00
2018-05-18T10:51:11.759Z,53.70
2018-05-18T10:53:14.185Z,54.60
2018-05-18T10:55:16.629Z,54.20
2018-05-18T10:57:19.935Z,53.00
2018-05-18T10:59:23.152Z,53.40
2018-05-18T11:01:25.623Z,53.30
2018-05-18T11:03:28.044Z,54.70
2018-05-18T11:05:31.249Z,54.30
2018-05-18T11:07:33.676Z,54.30
2018-05-18T11:09:36.124Z,53.60
2018-05-18T11:11:38.583Z,53.90
2018-05-18T11:13:41.057Z,55.40
2018-05-18T11:15:43.587Z,56.80
2018-05-18T11:17:45.936Z,56.40
2018-05-18T11:19:48.376Z,55.80
2018-05-18T11:21:50.808Z,53.40
2018-05-18T11:23:53.245Z,53.80
2018-05-18T11:25:55.681Z,53.70
2018-05-18T11:27:58.137Z,51.10
2018-05-18T11:30:00.574Z,51.80
2018-05-18T11:32:03.114Z,50.30
2018-05-18T11:34:05.555Z,50.90
2018-05-18T11:36:07.980Z,50.20
2018-05-18T11:38:11.168Z,53.10
2018-05-18T11:40:14.372Z,53.90
2018-05-18T11:42:16.804Z,53.90
2018-05-18T11:44:19.335Z,53.10
2018-05-18T11:46:21.802Z,52.90
2018-05-18T11:48:24.272Z,52.70
2018-05-18T11:50:27.273Z,53.20
2018-05-18T11:52:29.739Z,54.40
2018-05-18T11:54:32.197Z,55.30
2018-05-18T11:56:34.628Z,55.10
2018-05-18T11:58:37.821Z,52.50
2018-05-18T12:00:40.264Z,52.50
2018-05-18T12:02:42.701Z,53.10
2018-05-18T12:04:45.138Z,53.70
2018-05-18T12:06:47.564Z,54.40
2018-05-18T12:08:49.989Z,56.60
2018-05-18T12:10:52.427Z,55.20
2018-05-18T12:12:55.632Z,54.10
2018-05-18T12:14:58.062Z,54.10
2018-05-18T12:17:00.588Z,54.50
2018-05-18T12:19:03.033Z,52.40
2018-05-18T12:21:06.229Z,51.80
2018-05-18T12:23:08.662Z,51.70
2018-05-18T12:25:11.101Z,50.80
2018-05-18T12:27:13.563Z,51.50
2018-05-18T12:29:15.997Z,54.40
2018-05-18T12:31:19.205Z,55.30
2018-05-18T12:33:21.689Z,55.30
2018-05-18T12:35:24.128Z,54.20
2018-05-18T12:37:27.351Z,53.30
2018-05-18T12:39:29.800Z,53.30
2018-05-18T12:41:32.984Z,54.20
2018-05-18T12:43:35.412Z,54.00
2018-05-18T12:45:37.856Z,52.80
2018-05-18T12:47:40.308Z,53.20
2018-05-18T12:49:42.740Z,53.70
2018-05-18T12:51:45.976Z,55.30
2018-05-18T12:53:48.445Z,55.10
2018-05-18T12:55:50.930Z,55.30
2018-05-18T12:57:53.385Z,55.50
2018-05-18T12:59:55.872Z,54.20
2018-05-18T13:01:58.328Z,55.40
2018-05-18T13:04:00.761Z,55.00
2018-05-18T13:06:03.241Z,54.80
2018-05-18T13:08:05.770Z,55.50
2018-05-18T13:10:08.192Z,55.60
2018-05-18T13:12:10.643Z,53.30
2018-05-18T13:14:13.929Z,50.70
2018-05-18T13:16:17.178Z,51.40
2018-05-18T13:18:19.610Z,51.30
2018-05-18T13:20:22.049Z,51.50
2018-05-18T13:22:25.282Z,53.00
2018-05-18T13:24:27.762Z,53.00
2018-05-18T13:26:30.196Z,53.00
2018-05-18T13:28:32.649Z,51.20
2018-05-18T13:30:35.957Z,51.60
2018-05-18T13:32:38.372Z,51.60
2018-05-18T13:34:40.804Z,50.70
2018-05-18T13:36:43.264Z,49.50
2018-05-18T13:38:45.864Z,52.00
2018-05-18T13:40:48.174Z,53.30
2018-05-18T13:42:50.704Z,55.40
2018-05-18T13:44:53.168Z,52.60
2018-05-18T13:46:55.572Z,52.20
2018-05-18T13:48:58.019Z,53.00
2018-05-18T13:51:00.489Z,54.10
2018-05-18T13:53:02.939Z,53.70
2018-05-18T13:55:05.362Z,52.10
2018-05-18T13:57:07.933Z,50.50
2018-05-18T13:59:10.454Z,53.10
2018-05-18T14:01:12.896Z,52.00
2018-05-18T14:03:15.381Z,52.50
2018-05-18T14:05:17.832Z,52.60
2018-05-18T14:07:21.044Z,51.40
2018-05-18T14:09:23.473Z,51.40
2018-05-18T14:11:25.992Z,51.50
2018-05-18T14:13:28.432Z,51.30
2018-05-18T14:15:31.687Z,52.70
2018-05-18T14:17:34.225Z,52.60
2018-05-18T14:19:36.663Z,51.60
2018-05-18T14:21:39.919Z,51.80
2018-05-18T14:23:42.349Z,51.80
2018-05-18T14:25:44.773Z,51.70
2018-05-18T14:27:47.201Z,51.50
2018-05-18T14:29:49.641Z,50.80
2018-05-18T14:31:52.204Z,49.70
2018-05-18T14:33:54.612Z,49.70
2018-05-18T14:35:57.052Z,49.60
2018-05-18T14:37:59.517Z,50.10
2018-05-18T14:40:01.953Z,51.10
2018-05-18T14:42:04.490Z,51.30
2018-05-18T14:44:06.985Z,51.60
2018-05-18T14:46:09.434Z,52.50
2018-05-18T14:48:12.004Z,49.70
2018-05-18T14:50:14.464Z,52.40
2018-05-18T14:52:16.918Z,51.70
2018-05-18T14:54:20.116Z,52.60
2018-05-18T14:56:22.565Z,52.60
2018-05-18T14:58:25.799Z,51.30
2018-05-18T15:00:28.232Z,51.30
2018-05-18T15:02:30.680Z,51.20
2018-05-18T15:04:33.901Z,48.80
2018-05-18T15:06:36.398Z,48.80
2018-05-18T15:08:38.859Z,49.60
2018-05-18T15:10:41.317Z,48.90
2018-05-18T15:12:43.788Z,49.60
2018-05-18T15:14:46.225Z,49.30
2018-05-18T15:16:49.446Z,50.20
2018-05-18T15:18:51.893Z,50.20
2018-05-18T15:20:54.333Z,50.50
2018-05-18T15:22:56.971Z,50.50
2018-05-18T15:24:59.453Z,50.10
2018-05-18T15:27:01.926Z,49.60
2018-05-18T15:29:04.345Z,49.60
2018-05-18T15:31:06.821Z,48.70
2018-05-18T15:33:09.355Z,48.30
2018-05-18T15:35:11.849Z,48.80
2018-05-18T15:37:14.412Z,50.00
2018-05-18T15:39:17.664Z,51.50
2018-05-18T15:41:20.127Z,51.50
2018-05-18T15:43:22.556Z,51.30
2018-05-18T15:45:26.489Z,52.20
2018-05-18T15:47:28.961Z,52.20
2018-05-18T15:49:31.449Z,51.10
2018-05-18T15:51:33.915Z,50.80
2018-05-18T15:53:36.356Z,51.20
2018-05-18T15:55:38.836Z,52.70
2018-05-18T15:57:42.301Z,52.60
2018-05-18T15:59:45.493Z,51.40
2018-05-18T16:01:48.684Z,51.50
2018-05-18T16:03:51.897Z,51.10
2018-05-18T16:05:54.364Z,51.10
2018-05-18T16:07:56.832Z,50.40
2018-05-18T16:09:59.309Z,51.10
2018-05-18T16:12:01.757Z,51.10
2018-05-18T16:14:04.253Z,51.90
2018-05-18T16:16:06.669Z,52.10
2018-05-18T16:18:09.870Z,50.90
2018-05-18T16:20:13.061Z,51.90
2018-05-18T16:22:15.560Z,51.80
2018-05-18T16:24:17.992Z,52.70
2018-05-18T16:26:21.184Z,51.90
2018-05-18T16:28:24.408Z,51.60
2018-05-18T16:30:26.842Z,51.60
2018-05-18T16:32:30.043Z,52.20
2018-05-18T16:34:32.530Z,52.20
2018-05-18T16:36:34.952Z,52.80
2018-05-18T16:38:37.456Z,53.80
2018-05-18T16:40:40.631Z,52.50
2018-05-18T16:42:43.127Z,52.50
2018-05-18T16:44:45.566Z,52.70
2018-05-18T16:46:48.756Z,52.40
2018-05-18T16:48:51.965Z,52.80
2018-05-18T16:50:54.405Z,52.80
2018-05-18T16:52:56.828Z,52.60
2018-05-18T16:54:59.279Z,51.70
2018-05-18T16:57:01.723Z,51.60
2018-05-18T16:59:04.945Z,52.00
2018-05-18T17:01:07.425Z,52.00
2018-05-18T17:03:09.866Z,51.60
2018-05-18T17:05:12.292Z,51.90
2018-05-18T17:07:14.734Z,51.00
2018-05-18T17:09:17.182Z,50.50
2018-05-18T17:11:19.628Z,49.40
2018-05-18T17:13:22.833Z,50.90
2018-05-18T17:15:25.260Z,50.90
2018-05-18T17:17:27.788Z,50.50
2018-05-18T17:19:30.246Z,51.50
2018-05-18T17:21:32.728Z,51.20
2018-05-18T17:23:35.206Z,51.70
2018-05-18T17:25:37.632Z,50.90
2018-05-18T17:27:40.849Z,50.30
2018-05-18T17:29:43.337Z,50.20
2018-05-18T17:31:45.796Z,49.50
2018-05-18T17:33:48.273Z,49.40
2018-05-18T17:35:50.702Z,49.80
2018-05-18T17:37:53.949Z,51.10
2018-05-18T17:39:56.480Z,51.10
2018-05-18T17:41:58.967Z,50.70
2018-05-18T17:44:01.410Z,50.00
2018-05-18T17:46:03.866Z,50.10
2018-05-18T17:48:06.304Z,48.90
2018-05-18T17:50:08.765Z,48.80
2018-05-18T17:52:11.212Z,49.60
2018-05-18T17:54:13.650Z,50.30
2018-05-18T17:56:16.850Z,49.60
2018-05-18T17:58:20.528Z,49.60
2018-05-18T18:00:22.993Z,50.40
2018-05-18T18:02:25.405Z,51.80
2018-05-18T18:04:27.848Z,52.30
2018-05-18T18:06:31.064Z,52.10
2018-05-18T18:08:33.505Z,52.00
2018-05-18T18:10:36.697Z,50.50
2018-05-18T18:12:39.188Z,50.50
2018-05-18T18:14:41.624Z,50.40
2018-05-18T18:16:44.816Z,52.50
2018-05-18T18:18:48.021Z,53.40
2018-05-18T18:20:50.509Z,53.50
2018-05-18T18:22:52.944Z,54.30
2018-05-18T18:24:56.136Z,56.40
2018-05-18T18:26:58.637Z,56.50
2018-05-18T18:29:01.092Z,57.00
2018-05-18T18:31:03.572Z,57.00
2018-05-18T18:33:05.996Z,57.40
2018-05-18T18:35:08.517Z,58.20
2018-05-18T18:37:10.944Z,58.80
2018-05-18T18:39:14.156Z,60.20
2018-05-18T18:41:16.591Z,60.20
2018-05-18T18:43:19.118Z,60.70
2018-05-18T18:45:21.553Z,61.60
2018-05-18T18:47:24.776Z,62.80
2018-05-18T18:49:27.203Z,62.80
2018-05-18T18:51:30.400Z,63.20
2018-05-18T18:53:33.616Z,63.00
2018-05-18T18:55:36.042Z,63.10
2018-05-18T18:57:39.240Z,64.50
2018-05-18T18:59:42.452Z,64.60
2018-05-18T19:01:44.891Z,64.70
2018-05-18T19:03:48.096Z,67.00
2018-05-18T19:05:51.288Z,68.60
2018-05-18T19:07:53.851Z,68.70
2018-05-18T19:09:56.229Z,70.00
2018-05-18T19:11:58.718Z,70.40
2018-05-18T19:14:01.193Z,70.70
2018-05-18T19:16:03.628Z,71.90
2018-05-18T19:18:06.817Z,73.40
2018-05-18T19:20:09.252Z,73.30
2018-05-18T19:22:11.689Z,74.10
2018-05-18T19:24:14.256Z,74.90
2018-05-18T19:26:16.589Z,75.40
2018-05-18T19:28:19.829Z,76.80
2018-05-18T19:30:22.284Z,76.80
2018-05-18T19:32:24.756Z,77.40
2018-05-18T19:34:27.228Z,78.40
2018-05-18T19:36:29.734Z,78.10
2018-05-18T19:38:32.897Z,79.80
2018-05-18T19:40:35.318Z,79.70
2018-05-18T19:42:39.461Z,80.80
2018-05-18T19:44:41.937Z,80.80
2018-05-18T19:46:44.356Z,80.60
2018-05-18T19:48:47.560Z,80.60
2018-05-18T19:50:50.009Z,80.70
2018-05-18T19:52:52.442Z,81.10
2018-05-18T19:54:54.874Z,81.70
2018-05-18T19:56:57.383Z,81.90
2018-05-18T19:59:00.812Z,82.90
2018-05-18T20:01:04.012Z,83.40
2018-05-18T20:03:07.243Z,83.90
2018-05-18T20:05:09.686Z,84.00
2018-05-18T20:07:12.173Z,84.30
2018-05-18T20:09:14.640Z,84.10
2018-05-18T20:11:17.081Z,84.60
2018-05-18T20:13:20.304Z,84.30
2018-05-18T20:15:22.768Z,84.30
2018-05-18T20:17:25.244Z,85.20
2018-05-18T20:19:27.681Z,84.90
2018-05-18T20:21:30.885Z,83.80
2018-05-18T20:23:33.321Z,83.80
2018-05-18T20:25:36.577Z,83.80
2018-05-18T20:27:39.028Z,83.80
2018-05-18T20:29:41.497Z,84.10
2018-05-18T20:31:43.938Z,84.00
2018-05-18T20:33:47.124Z,84.70
2018-05-18T20:35:49.628Z,84.80
2018-05-18T20:37:52.064Z,85.30
2018-05-18T20:39:55.284Z,85.80
2018-05-18T20:41:57.748Z,86.00
2018-05-18T20:44:00.185Z,86.80
2018-05-18T20:46:03.401Z,87.90
2018-05-18T20:48:06.668Z,88.10
2018-05-18T20:50:09.884Z,88.40
2018-05-18T20:52:12.328Z,88.40
2018-05-18T20:54:15.512Z,89.50
2018-05-18T20:56:18.729Z,90.50
2018-05-18T20:58:21.162Z,90.50
2018-05-18T21:00:24.367Z,90.50
2018-05-18T21:02:26.807Z,90.50
2018-05-18T21:04:29.333Z,91.00
2018-05-18T21:06:31.801Z,91.10
2018-05-18T21:08:34.260Z,91.60
2018-05-18T21:10:36.768Z,92.10
2018-05-18T21:12:39.190Z,92.10
2018-05-18T21:14:41.628Z,92.50
2018-05-18T21:16:44.067Z,92.50
2018-05-18T21:18:46.517Z,92.70
2018-05-18T21:20:48.966Z,92.90
2018-05-18T21:22:51.425Z,93.40
2018-05-18T21:24:54.622Z,93.90
2018-05-18T21:26:57.053Z,93.90
2018-05-18T21:28:59.589Z,94.20
2018-05-18T21:31:02.028Z,94.70
2018-05-18T21:33:04.521Z,94.30
2018-05-18T21:35:07.005Z,94.30
2018-05-18T21:37:09.468Z,94.10
2018-05-18T21:39:12.024Z,94.80
2018-05-18T21:41:15.209Z,95.30
2018-05-18T21:43:17.701Z,95.30
2018-05-18T21:45:20.138Z,95.60
2018-05-18T21:47:23.358Z,95.70
2018-05-18T21:49:25.800Z,95.70
2018-05-18T21:51:29.012Z,96.10
2018-05-18T21:53:31.486Z,96.10
2018-05-18T21:55:33.945Z,96.10
2018-05-18T21:57:36.373Z,96.30
2018-05-18T21:59:39.616Z,97.00
2018-05-18T22:01:42.040Z,96.70
2018-05-18T22:03:45.277Z,97.20
2018-05-18T22:05:47.717Z,97.10
2018-05-18T22:07:50.149Z,96.90
2018-05-18T22:09:52.680Z,97.20
2018-05-18T22:11:55.129Z,97.60
2018-05-18T22:13:57.568Z,97.40
2018-05-18T22:16:00.774Z,97.50
2018-05-18T22:18:03.207Z,97.50
2018-05-18T22:20:05.637Z,97.50
2018-05-18T22:22:08.095Z,98.50
2018-05-18T22:24:11.277Z,99.10
2018-05-18T22:26:13.720Z,99.10
2018-05-18T22:28:16.957Z,99.70
2018-05-18T22:30:19.384Z,99.70
2018-05-18T22:32:22.597Z,99.00
2018-05-18T22:34:25.084Z,98.90
2018-05-18T22:36:27.563Z,99.50
2018-05-18T22:38:29.996Z,99.70
2018-05-18T22:40:33.120Z,99.90
2018-05-18T22:42:35.580Z,99.90
2018-05-18T22:44:38.048Z,99.90
2018-05-18T22:46:40.501Z,99.90
2018-05-18T22:48:42.933Z,99.90
2018-05-18T22:50:45.457Z,99.90
2018-05-18T22:52:47.928Z,99.90
2018-05-18T22:54:50.361Z,99.90
2018-05-18T22:56:53.605Z,99.90
2018-05-18T22:58:56.880Z,99.90
2018-05-18T23:00:59.320Z,99.90
2018-05-18T23:03:01.968Z,99.90
2018-05-18T23:05:04.401Z,99.90
2018-05-18T23:07:06.852Z,99.90
2018-05-18T23:09:09.308Z,99.90
2018-05-18T23:11:11.740Z,99.90
2018-05-18T23:13:14.252Z,99.90
2018-05-18T23:15:16.690Z,99.90
2018-05-18T23:17:19.218Z,99.90
2018-05-18T23:19:21.649Z,99.90
2018-05-18T23:21:24.861Z,99.90
2018-05-18T23:23:27.361Z,99.90
2018-05-18T23:25:29.813Z,99.90
2018-05-18T23:27:32.306Z,99.90
2018-05-18T23:29:34.756Z,99.90
2018-05-18T23:31:37.202Z,99.90
2018-05-18T23:33:39.636Z,99.90
2018-05-18T23:35:42.087Z,99.90
2018-05-18T23:37:44.521Z,99.90
2018-05-18T23:39:46.948Z,99.90
2018-05-18T23:41:50.221Z,99.90
2018-05-18T23:43:52.659Z,99.90
2018-05-18T23:45:55.080Z,99.90
2018-05-18T23:47:58.295Z,99.90
2018-05-18T23:50:00.724Z,99.90
2018-05-18T23:52:03.965Z,99.90
2018-05-18T23:54:06.444Z,99.90
2018-05-18T23:56:08.928Z,99.90
2018-05-18T23:58:11.379Z,99.90
